Nearby METAR Reports

 

KBJC - Broomfield/Jeffc, Colorado, USA
Distance from station: SSW 3mi, 5km
Updated: Tue, 17-Oct-2017 8:46am MDT
Few Clouds
Few Clouds
 Wind from calm
Wind: Calm
Temperature: 54°F , 12°C
Dew Point: 19°F , -7°C
Humidity: 26%
Barometer: 30.27 inHg , 1025.1 hPa
Clouds: Few Clouds
Visibility: 50 miles , 80 km
Cloud details: Few Clouds 20000 ft
2017/10/17 14:46 KBJC 171446Z 00000KT 50SM FEW200 12/M07 A3027
KEIK - Erie Muni, Colorado, USA
Distance from station: N 5mi, 9km
Updated: Tue, 17-Oct-2017 8:53am MDT
Clear
Clear
 Wind from calm
Wind: Calm
Temperature: 46°F , 8°C
Dew Point: 25°F , -4°C
Humidity: 43%
Barometer: 30.31 inHg , 1026.4 hPa
Clouds: Clear
Visibility: 10 miles , 16 km
2017/10/17 14:53 KEIK 171453Z AUTO 00000KT 10SM CLR 08/M04 A3031 RMK AO2 T00761043
 
KBDU - Boulder Muni, Colorado, USA
Distance from station: NW 11mi, 17km
Updated: Tue, 17-Oct-2017 8:53am MDT
Clear
Clear
 Wind from calm
Wind: Calm
Temperature: 52°F , 11°C
Dew Point: 23°F , -5°C
Humidity: 32%
Barometer: 30.25 inHg , 1024.4 hPa
Clouds: Clear
Visibility: 10 miles , 16 km
2017/10/17 14:53 KBDU 171453Z AUTO 00000KT 10SM CLR 11/M05 A3025 RMK AO2
KLMO - Longmont/Vbrand, Colorado, USA
Distance from station: NNW 16mi, 27km
Updated: Tue, 17-Oct-2017 8:55am MDT
Clear
Clear
 Wind from calm
Wind: Calm
Temperature: 48°F , 9°C
Dew Point: 32°F , 0°C
Humidity: 54%
Barometer: 30.27 inHg , 1025.1 hPa
Clouds: Clear
Visibility: 10 miles , 16 km
2017/10/17 14:55 KLMO 171455Z AUTO 00000KT 10SM CLR 09/00 A3027 RMK AO2 T00891004
 
KBKF - Buckley Angb/Den, Colorado, USA
Distance from station: SE 23mi, 37km
Updated: Tue, 17-Oct-2017 7:58am MDT
Few Clouds
Few Clouds
 Wind from S
Wind: S 10 mph , 17 km/h
Temperature: 45°F , 7°C
Wind Chill: 40°F , 4°C
Dew Point: 12°F , -11°C
Humidity: 27%
Barometer: 30.27 inHg , 1025.1 hPa
Clouds: Few Clouds
Visibility: 10 miles , 16 km
Cloud details: Few Clouds 11000 ft
Few Clouds 22000 ft
2017/10/17 13:58 KBKF 171358Z 19009KT 10SM FEW110 FEW220 07/M11 A3027 RMK AO2A SLP218 T00721109
KDEN - Denver (dia), Colorado, USA
Distance from station: ESE 23mi, 37km
Updated: Tue, 17-Oct-2017 8:53am MDT
Few Clouds
Few Clouds
 Wind from SW
Wind: SW 13 mph , 20 km/h
Temperature: 55°F , 13°C
Dew Point: 12°F , -11°C
Humidity: 18%
Barometer: 30.26 inHg , 1024.7 hPa
Clouds: Few Clouds
Visibility: 10 miles , 16 km
Cloud details: Few Clouds 15000 ft
Few Clouds 22000 ft
2017/10/17 14:53 KDEN 171453Z 23011KT 10SM FEW150 FEW220 13/M11 A3026 RMK AO2 SLP208 T01281106 53002
 
KAPA - Denver/Arapahoe, Colorado, USA
Distance from station: SSE 28mi, 46km
Updated: Tue, 17-Oct-2017 8:53am MDT
Few Clouds
Few Clouds
 Wind from SE
Wind: SE 5 mph , 7 km/h
Temperature: 50°F , 10°C
Wind Chill: 48°F , 9°C
Dew Point: 18°F , -8°C
Humidity: 28%
Barometer: 30.29 inHg , 1025.7 hPa
Clouds: Few Clouds
Visibility: 10 miles , 16 km
Cloud details: Few Clouds 12000 ft
Few Clouds 22000 ft
2017/10/17 14:53 KAPA 171453Z 14004KT 10SM FEW120 FEW220 10/M08 A3029 RMK AO2 SLP237 ACSL DSNT W OMTNS T01001078 53003
KFTG - Denver F. Range, Colorado, USA
Distance from station: ESE 30mi, 48km
Updated: Tue, 17-Oct-2017 8:51am MDT
Few Clouds
Few Clouds
 Wind from SSW
Wind: SSW 10 mph , 17 km/h, Gust: 20 mph , 31 km/h
Temperature: 57°F , 14°C
Dew Point: 14°F , -10°C
Humidity: 18%
Barometer: 30.27 inHg , 1025.1 hPa
Clouds: Few Clouds
Visibility: 10 miles , 16 km
Cloud details: Few Clouds 22000 ft
2017/10/17 14:51 KFTG 171451Z 21009G17KT 10SM FEW220 14/M10 A3027
 
KFNL - Ft Collins/Lovel, Colorado, USA
Distance from station: N 35mi, 57km
Updated: Tue, 17-Oct-2017 8:56am MDT
Clear
Clear
 Wind from S
Wind: S 3 mph , 6 km/h
Temperature: 46°F , 8°C
Dew Point: 32°F , 0°C
Humidity: 57%
Barometer: 30.25 inHg , 1024.4 hPa
Clouds: Clear
Visibility: 10 miles , 16 km
2017/10/17 14:56 KFNL 171456Z AUTO 18003KT 10SM CLR 08/00 A3025 RMK AO2 SLP219 T00780000 55000
K0CO - Berthoud Pass, Colorado, USA
Distance from station: WSW 38mi, 61km
Updated: Tue, 17-Oct-2017 9:00am MDT
Clear
Clear
 Wind from WNW
Wind: WNW 23 mph , 37 km/h, Gust: 30 mph , 48 km/h
Temperature: 30°F , -1°C
Wind Chill: 17°F , -8°C
Dew Point: 21°F , -6°C
Humidity: 69%
Barometer: 30.60 inHg , 1036.2 hPa
Clouds: Clear
Visibility: 10 miles , 16 km
2017/10/17 15:00 K0CO 171500Z AUTO 30020G26KT 10SM CLR M01/M06 A3060 RMK AO2
 
KGXY - Greeley/Weld, Colorado, USA
Distance from station: NE 41mi, 66km
Updated: Tue, 17-Oct-2017 8:56am MDT
Clear
Clear
 Wind from calm
Wind: Calm
Temperature: 43°F , 6°C
Dew Point: 32°F , 0°C
Humidity: 66%
Barometer: 30.26 inHg , 1024.7 hPa
Clouds: Clear
Visibility: 10 miles , 16 km
2017/10/17 14:56 KGXY 171456Z AUTO 00000KT 10SM CLR 06/00 A3026 RMK AO2 SLP254 T00560000 53000